createdAt,value
2022-08-22T16:19:27.889Z,50.64
2022-08-22T16:21:54.217Z,50.17
2022-08-22T16:24:23.849Z,51.59
2022-08-22T16:26:51.604Z,51.41
2022-08-22T16:29:20.846Z,52.43
2022-08-22T16:31:47.143Z,52.55
2022-08-22T16:34:16.668Z,51.62
2022-08-22T16:37:11.050Z,52.83
2022-08-22T16:39:43.394Z,53.41
2022-08-22T16:42:12.875Z,52.25
2022-08-22T16:45:05.209Z,51.27
2022-08-22T16:47:40.129Z,52.15
2022-08-22T16:50:09.451Z,52.11
2022-08-22T16:52:51.990Z,53.09
2022-08-22T16:55:30.326Z,54.34
2022-08-22T16:58:08.986Z,55.08
2022-08-22T17:00:58.038Z,54.38
2022-08-22T17:03:46.371Z,55.04
2022-08-22T17:06:28.470Z,55.51
2022-08-22T17:09:10.310Z,55.10
2022-08-22T17:12:16.636Z,55.77
2022-08-22T17:15:08.025Z,56.80
2022-08-22T17:18:14.084Z,57.48
2022-08-22T17:21:11.567Z,56.63
2022-08-22T17:24:02.472Z,56.62
2022-08-22T17:26:34.886Z,57.91
2022-08-22T17:29:25.959Z,57.81
2022-08-22T17:32:15.147Z,60.49
2022-08-22T17:35:03.954Z,59.96
2022-08-22T17:37:58.416Z,59.90
2022-08-22T17:40:53.962Z,61.62
2022-08-22T17:43:54.595Z,63.87
2022-08-22T17:46:49.658Z,64.39
2022-08-22T17:49:24.696Z,66.65
2022-08-22T17:52:13.311Z,68.32
2022-08-22T17:54:48.279Z,67.96
2022-08-22T17:57:29.087Z,70.93
2022-08-22T18:00:11.494Z,70.89
2022-08-22T18:02:45.431Z,71.59
2022-08-22T18:05:17.686Z,72.90
2022-08-22T18:08:37.368Z,73.76
2022-08-22T18:11:09.666Z,73.88
2022-08-22T18:13:54.572Z,73.60
2022-08-22T18:16:32.712Z,73.35
2022-08-22T18:19:13.177Z,74.96
2022-08-22T18:22:09.478Z,76.33
2022-08-22T18:24:50.738Z,75.70
2022-08-22T18:27:35.270Z,75.95
2022-08-22T18:30:10.991Z,75.51
2022-08-22T18:32:48.271Z,76.89
2022-08-22T18:35:25.102Z,78.18
2022-08-22T18:38:19.160Z,79.26
2022-08-22T18:40:52.387Z,79.54
2022-08-22T18:43:25.958Z,78.65
2022-08-22T18:45:52.274Z,79.72
2022-08-22T18:48:29.740Z,80.76
2022-08-22T18:51:27.560Z,81.45
2022-08-22T18:53:57.032Z,81.25
2022-08-22T18:56:55.562Z,82.15
2022-08-22T18:59:43.598Z,82.17
2022-08-22T19:02:40.654Z,81.38
2022-08-22T19:05:27.606Z,82.95
2022-08-22T19:08:00.120Z,83.91
2022-08-22T19:10:52.663Z,84.66
2022-08-22T19:13:42.842Z,85.56
2022-08-22T19:16:27.934Z,87.51
2022-08-22T19:19:02.559Z,88.47
2022-08-22T19:21:48.762Z,87.30
2022-08-22T19:24:27.038Z,88.93
2022-08-22T19:27:18.755Z,90.10
2022-08-22T19:29:45.053Z,90.01
2022-08-22T19:32:46.186Z,89.53
2022-08-22T19:35:26.075Z,88.31
2022-08-22T19:38:06.125Z,90.09
2022-08-22T19:40:44.367Z,91.87
2022-08-22T19:43:33.557Z,92.59
2022-08-22T19:46:05.733Z,91.43
2022-08-22T19:48:43.478Z,91.82
2022-08-22T19:51:19.222Z,91.63
2022-08-22T19:54:00.843Z,90.57
2022-08-22T19:57:02.856Z,89.98
2022-08-22T19:59:50.525Z,90.50
2022-08-22T20:02:32.092Z,91.14
2022-08-22T20:05:23.279Z,90.89
2022-08-22T20:07:53.040Z,89.92
2022-08-22T20:10:40.815Z,89.16
2022-08-22T20:13:20.848Z,88.96
2022-08-22T20:16:06.004Z,88.18
2022-08-22T20:19:01.908Z,88.34
2022-08-22T20:21:50.034Z,89.84
2022-08-22T20:24:34.401Z,90.46
2022-08-22T20:27:15.355Z,92.22
2022-08-22T20:29:49.924Z,92.03
2022-08-22T20:32:19.068Z,94.42
2022-08-22T20:34:47.909Z,93.26
2022-08-22T20:37:32.420Z,92.58
2022-08-22T20:40:55.377Z,92.00
2022-08-22T20:43:20.528Z,87.68
2022-08-22T20:46:04.308Z,86.47
2022-08-22T20:48:40.973Z,81.88
2022-08-22T20:51:09.322Z,78.73
2022-08-22T20:53:39.540Z,78.72
2022-08-22T20:56:07.989Z,73.64
2022-08-22T20:58:40.141Z,71.35
2022-08-22T21:01:11.248Z,69.76
2022-08-22T21:03:43.137Z,70.29
2022-08-22T21:06:21.468Z,68.39
2022-08-22T21:09:12.246Z,65.73
2022-08-22T21:11:50.274Z,64.92
2022-08-22T21:14:24.445Z,64.17
2022-08-22T21:16:51.636Z,64.58
2022-08-22T21:19:26.875Z,62.78
2022-08-22T21:21:53.788Z,63.33
2022-08-22T21:24:20.488Z,62.64
2022-08-22T21:27:00.539Z,62.29
2022-08-22T21:29:32.862Z,63.16
2022-08-22T21:32:16.700Z,62.01
2022-08-22T21:34:46.882Z,62.64
2022-08-22T21:37:25.447Z,63.11
2022-08-22T21:40:03.036Z,62.26
2022-08-22T21:42:36.918Z,62.58
2022-08-22T21:45:25.399Z,63.20
2022-08-22T21:47:52.703Z,61.86
2022-08-22T21:50:19.178Z,61.64
2022-08-22T21:52:54.462Z,62.04
2022-08-22T21:55:28.826Z,61.92
2022-08-22T21:58:05.058Z,61.74
2022-08-22T22:00:49.518Z,61.90
2022-08-22T22:03:18.818Z,62.68
2022-08-22T22:05:45.397Z,61.42
2022-08-22T22:08:12.333Z,62.33
2022-08-22T22:10:42.123Z,62.03
2022-08-22T22:13:09.110Z,61.80
2022-08-22T22:15:46.890Z,62.04
2022-08-22T22:18:16.597Z,62.11
2022-08-22T22:20:44.171Z,62.44
2022-08-22T22:23:10.688Z,62.35
2022-08-22T22:25:42.223Z,63.30
2022-08-22T22:28:21.400Z,63.78
2022-08-22T22:30:51.539Z,64.14
2022-08-22T22:33:19.628Z,64.67
2022-08-22T22:35:47.345Z,63.64
2022-08-22T22:38:14.634Z,64.48
2022-08-22T22:40:42.136Z,64.05
2022-08-22T22:43:10.255Z,64.65
2022-08-22T22:45:37.390Z,64.78
2022-08-22T22:48:05.591Z,64.62
2022-08-22T22:50:33.324Z,64.29
2022-08-22T22:52:59.692Z,64.36
2022-08-22T22:55:26.267Z,64.54
2022-08-22T22:57:59.224Z,65.66
2022-08-22T23:00:29.205Z,65.46
2022-08-22T23:02:57.587Z,65.23
2022-08-22T23:05:23.989Z,65.28
2022-08-22T23:07:50.496Z,65.43
2022-08-22T23:10:21.758Z,66.94
2022-08-22T23:12:48.595Z,65.82
2022-08-22T23:15:15.575Z,65.92
2022-08-22T23:17:42.532Z,65.38
2022-08-22T23:20:09.222Z,65.89
2022-08-22T23:22:35.594Z,66.37
2022-08-22T23:25:02.263Z,66.70
2022-08-22T23:27:28.651Z,67.17
2022-08-22T23:29:55.070Z,66.99
2022-08-22T23:32:21.459Z,66.52
2022-08-22T23:34:48.928Z,66.91
2022-08-22T23:37:18.851Z,67.02
2022-08-22T23:39:45.376Z,66.94
2022-08-22T23:42:12.462Z,66.92
2022-08-22T23:44:41.021Z,66.65
2022-08-22T23:47:09.534Z,67.77
2022-08-22T23:49:38.357Z,67.86
2022-08-22T23:52:06.162Z,67.27
2022-08-22T23:54:33.803Z,67.83
2022-08-22T23:57:02.444Z,68.37
2022-08-22T23:59:38.529Z,67.61
